Time;durP1;ratioP1;P1;durP2;ratioP2;P2;SDS_P1;SDS_P2;PMS_P1;PMS_P2;Temp;Humidity;BMP_temperature;BMP_pressure;BME280_temperature;BME280_humidity;BME280_pressure;Samples;Min_cycle;Max_cycle;Signal;HPM_P1;HPM_P2
2022/05/15 00:01:57;;;;;;;9.65;2.72;;;;;;;11.79;100.00;98804.72;15294412;19;20022;-79
2022/05/15 00:07:06;;;;;;;8.68;2.45;;;;;;;11.69;100.00;98802.13;15297719;19;20011;-79
2022/05/15 00:12:12;;;;;;;8.55;2.40;;;;;;;11.62;100.00;98801.91;15296016;19;20015;-79
2022/05/15 00:17:19;;;;;;;7.65;2.45;;;;;;;11.48;100.00;98800.66;15323113;19;20018;-78
2022/05/15 00:22:26;;;;;;;10.00;2.72;;;;;;;11.35;100.00;98808.31;15337678;19;20022;-80
2022/05/15 00:27:32;;;;;;;9.90;2.63;;;;;;;11.22;100.00;98812.25;15288864;19;20010;-79
2022/05/15 00:32:36;;;;;;;8.32;2.80;;;;;;;11.13;100.00;98812.31;15291340;19;20006;-78
2022/05/15 00:37:44;;;;;;;7.50;2.70;;;;;;;11.01;100.00;98807.16;15286799;19;20406;-79
2022/05/15 00:42:50;;;;;;;8.35;3.10;;;;;;;10.88;100.00;98804.88;15283160;19;20014;-77
2022/05/15 00:47:55;;;;;;;8.95;3.13;;;;;;;10.73;100.00;98814.47;15283576;19;20010;-78
2022/05/15 00:53:10;;;;;;;8.82;3.08;;;;;;;10.64;100.00;98810.88;15291858;19;20002;-77
2022/05/15 00:58:21;;;;;;;8.15;2.83;;;;;;;10.60;100.00;98804.09;15297941;19;20026;-78
2022/05/15 01:03:26;;;;;;;11.60;2.75;;;;;;;10.56;100.00;98813.47;15292225;19;20027;-76
2022/05/15 01:08:34;;;;;;;9.55;2.95;;;;;;;10.53;100.00;98813.75;15302759;19;20024;-77
2022/05/15 01:13:42;;;;;;;8.73;2.92;;;;;;;10.47;100.00;98810.69;15294878;19;20006;-78
2022/05/15 01:18:48;;;;;;;8.90;2.88;;;;;;;10.43;100.00;98809.28;15292087;19;20007;-78
2022/05/15 01:23:57;;;;;;;7.25;2.45;;;;;;;10.39;100.00;98810.59;15298470;19;20022;-75
2022/05/15 01:29:03;;;;;;;8.93;2.50;;;;;;;10.40;100.00;98809.59;15293460;19;20010;-73
2022/05/15 01:34:09;;;;;;;8.20;2.60;;;;;;;10.36;100.00;98799.22;15288744;19;20074;-77
2022/05/15 01:39:19;;;;;;;8.18;2.72;;;;;;;10.34;100.00;98799.38;15300116;19;20006;-72
2022/05/15 01:44:24;;;;;;;8.90;2.75;;;;;;;10.31;100.00;98805.06;15350099;19;20251;-73
2022/05/15 01:49:30;;;;;;;9.88;2.50;;;;;;;10.28;100.00;98805.38;15291046;19;20014;-74
2022/05/15 01:54:38;;;;;;;9.50;2.80;;;;;;;10.24;100.00;98809.38;15282545;19;20022;-73
2022/05/15 01:59:45;;;;;;;9.55;2.80;;;;;;;10.21;100.00;98809.66;15283735;19;20686;-76
2022/05/15 02:04:50;;;;;;;10.65;2.80;;;;;;;10.14;100.00;98804.88;15282575;19;20018;-76
2022/05/15 02:09:57;;;;;;;9.57;3.25;;;;;;;10.09;100.00;98804.47;15286582;19;20590;-75
2022/05/15 02:15:03;;;;;;;9.10;2.78;;;;;;;10.02;100.00;98806.91;15280598;19;20026;-74
2022/05/15 02:20:10;;;;;;;12.77;3.20;;;;;;;9.98;100.00;98808.22;15281595;19;20010;-76
2022/05/15 02:25:19;;;;;;;9.77;3.00;;;;;;;9.94;100.00;98793.34;15278903;19;20015;-74
2022/05/15 02:30:24;;;;;;;10.90;2.72;;;;;;;9.90;100.00;98807.25;15281483;19;20006;-75
2022/05/15 02:35:29;;;;;;;9.23;3.33;;;;;;;9.86;100.00;98799.47;15288404;19;20006;-76
2022/05/15 02:40:37;;;;;;;8.43;2.80;;;;;;;9.80;100.00;98797.38;15286250;19;20019;-73
2022/05/15 02:45:42;;;;;;;9.45;3.10;;;;;;;9.73;100.00;98801.63;15283044;19;20010;-76
2022/05/15 02:56:11;;;;;;;8.93;2.90;;;;;;;9.58;100.00;98803.94;15268762;19;20341;-76
2022/05/15 03:01:16;;;;;;;8.25;2.90;;;;;;;9.50;100.00;98806.53;15277281;19;20014;-76
2022/05/15 03:06:22;;;;;;;9.57;3.20;;;;;;;9.42;100.00;98807.25;15275976;19;20022;-76
2022/05/15 03:11:31;;;;;;;9.77;3.20;;;;;;;9.35;100.00;98801.59;15283130;19;20032;-79
2022/05/15 03:16:35;;;;;;;9.38;3.03;;;;;;;9.27;100.00;98811.38;15279638;19;20010;-75
2022/05/15 03:21:41;;;;;;;8.88;2.72;;;;;;;9.14;100.00;98808.97;15276632;19;20014;-75
2022/05/15 03:26:50;;;;;;;12.00;3.17;;;;;;;9.06;100.00;98812.38;15275179;19;20430;-74
2022/05/15 03:31:55;;;;;;;8.50;2.90;;;;;;;9.04;100.00;98817.91;15280382;19;20300;-76
2022/05/15 03:37:00;;;;;;;7.15;2.70;;;;;;;8.99;100.00;98830.06;15276606;19;20484;-75
2022/05/15 03:42:08;;;;;;;9.05;2.75;;;;;;;8.99;100.00;98824.69;15279561;19;20578;-75
2022/05/15 03:47:13;;;;;;;13.02;3.15;;;;;;;8.99;100.00;98828.22;15312315;19;20297;-74
2022/05/15 03:52:19;;;;;;;11.52;3.53;;;;;;;8.99;100.00;98830.91;15333963;19;20014;-75
2022/05/15 03:57:26;;;;;;;9.05;3.25;;;;;;;9.00;100.00;98832.59;15272981;19;20018;-73
2022/05/15 04:02:32;;;;;;;14.23;3.60;;;;;;;9.02;100.00;98836.00;15272364;19;20697;-77
2022/05/15 04:07:44;;;;;;;9.95;3.10;;;;;;;9.05;100.00;98840.25;15272987;19;20038;-75
2022/05/15 04:12:54;;;;;;;6.60;2.63;;;;;;;9.05;100.00;98841.09;15270451;19;20018;-75
2022/05/15 04:17:59;;;;;;;11.88;3.10;;;;;;;9.08;100.00;98834.59;15284446;19;20014;-77
2022/05/15 04:23:06;;;;;;;8.77;2.83;;;;;;;9.10;100.00;98851.44;15278434;19;20086;-76
2022/05/15 04:28:13;;;;;;;8.02;2.97;;;;;;;9.18;100.00;98850.69;15293356;19;20775;-76
2022/05/15 04:33:18;;;;;;;9.73;2.95;;;;;;;9.23;100.00;98851.97;15296317;19;20025;-77
2022/05/15 04:38:23;;;;;;;9.80;3.03;;;;;;;9.30;100.00;98862.16;15300761;19;20038;-75
2022/05/15 04:43:31;;;;;;;8.18;2.75;;;;;;;9.35;100.00;98859.91;15293440;19;20031;-76
2022/05/15 04:48:36;;;;;;;10.90;3.10;;;;;;;9.39;100.00;98858.63;15295583;19;20018;-75
2022/05/15 04:53:41;;;;;;;9.98;2.97;;;;;;;9.44;100.00;98866.25;15296774;19;20038;-76
2022/05/15 04:58:49;;;;;;;8.68;2.95;;;;;;;9.50;100.00;98863.00;15296674;19;20345;-77
2022/05/15 05:03:55;;;;;;;8.30;2.80;;;;;;;9.56;100.00;98865.97;15295276;19;20010;-75
2022/05/15 05:09:00;;;;;;;10.25;3.05;;;;;;;9.61;100.00;98884.38;15300413;19;20021;-75
2022/05/15 05:14:08;;;;;;;7.95;3.00;;;;;;;9.66;100.00;98882.09;15296965;19;20014;-76
2022/05/15 05:19:13;;;;;;;9.98;3.05;;;;;;;9.70;100.00;98882.66;15293944;19;20078;-75
2022/05/15 05:24:19;;;;;;;6.57;2.75;;;;;;;9.78;100.00;98896.25;15291353;19;20413;-76
2022/05/15 05:29:30;;;;;;;8.18;3.08;;;;;;;9.87;100.00;98899.91;15292957;19;20022;-75
2022/05/15 05:34:35;;;;;;;10.57;3.35;;;;;;;9.98;100.00;98901.56;15279537;19;20007;-75
2022/05/15 05:39:41;;;;;;;10.30;3.03;;;;;;;10.07;100.00;98905.22;15283725;19;20018;-75
2022/05/15 05:44:49;;;;;;;8.77;2.70;;;;;;;10.23;100.00;98904.59;15283346;19;20468;-76
2022/05/15 05:49:54;;;;;;;7.70;2.88;;;;;;;10.35;100.00;98907.97;15281097;19;20022;-76
2022/05/15 05:55:00;;;;;;;9.38;3.17;;;;;;;10.50;100.00;98905.69;15284282;19;20042;-75
2022/05/15 06:00:11;;;;;;;7.35;3.00;;;;;;;10.65;100.00;98904.16;15282008;19;20014;-76
2022/05/15 06:05:17;;;;;;;8.07;3.10;;;;;;;10.81;100.00;98902.66;15281543;19;20392;-76
2022/05/15 06:10:22;;;;;;;8.80;2.95;;;;;;;10.98;100.00;98904.56;15277101;19;20103;-76
2022/05/15 06:15:30;;;;;;;8.75;3.10;;;;;;;11.22;100.00;98900.41;15280541;19;20351;-74
2022/05/15 06:20:43;;;;;;;8.77;3.00;;;;;;;11.45;100.00;98902.66;15285913;19;20018;-74
2022/05/15 06:25:49;;;;;;;8.15;3.38;;;;;;;11.68;100.00;98911.97;15280699;19;20035;-73
2022/05/15 06:30:58;;;;;;;10.35;3.65;;;;;;;11.95;100.00;98902.00;15283378;19;20010;-75
2022/05/15 06:36:03;;;;;;;10.43;3.30;;;;;;;12.21;100.00;98919.28;15290048;19;20018;-77
2022/05/15 06:41:09;;;;;;;7.95;2.72;;;;;;;12.41;100.00;98900.94;15288349;19;20019;-77
2022/05/15 06:46:17;;;;;;;7.57;1.95;;;;;;;12.77;100.00;98895.34;15293314;19;20017;-77
2022/05/15 06:51:22;;;;;;;6.72;1.92;;;;;;;13.16;100.00;98878.56;15287642;19;20025;-76
2022/05/15 07:01:48;;;;;;;6.90;2.10;;;;;;;13.74;100.00;98886.75;15285327;19;20019;-75
2022/05/15 07:07:01;;;;;;;6.55;1.70;;;;;;;14.03;100.00;98875.34;15285617;19;20017;-76
2022/05/15 07:12:08;;;;;;;8.30;1.88;;;;;;;14.32;100.00;98876.66;15344188;19;20011;-75
2022/05/15 07:17:16;;;;;;;6.88;2.00;;;;;;;14.58;100.00;98871.97;15308766;19;20011;-77
2022/05/15 07:22:21;;;;;;;5.40;1.80;;;;;;;14.77;100.00;98870.72;15330453;19;20003;-76
2022/05/15 07:27:27;;;;;;;5.20;1.88;;;;;;;15.04;100.00;98866.66;15331809;19;20026;-74
2022/05/15 07:32:34;;;;;;;5.18;1.83;;;;;;;15.27;100.00;98852.25;15291862;19;20018;-76
2022/05/15 07:37:40;;;;;;;4.53;1.70;;;;;;;15.51;100.00;98851.25;15284441;19;20019;-76
2022/05/15 07:42:45;;;;;;;6.20;1.90;;;;;;;15.70;100.00;98863.44;15280541;19;20773;-76
2022/05/15 07:47:52;;;;;;;6.82;2.10;;;;;;;15.91;100.00;98867.38;15280479;19;20002;-75
2022/05/15 07:52:57;;;;;;;6.45;1.80;;;;;;;16.08;100.00;98862.63;15284919;19;20018;-76
2022/05/15 07:58:02;;;;;;;6.25;1.90;;;;;;;16.27;100.00;98863.94;15286847;19;20014;-75
2022/05/15 08:03:13;;;;;;;8.48;2.42;;;;;;;16.48;100.00;98862.34;15278634;19;20475;-77
2022/05/15 08:08:18;;;;;;;6.45;2.00;;;;;;;16.64;100.00;98856.66;15284499;19;21048;-76
2022/05/15 08:13:28;;;;;;;6.20;1.90;;;;;;;16.83;100.00;98854.41;15284607;19;20011;-75
2022/05/15 08:23:59;;;;;;;5.50;2.17;;;;;;;17.16;100.00;98847.69;15269893;19;21238;-75
2022/05/15 08:29:03;;;;;;;7.38;2.00;;;;;;;17.30;100.00;98851.38;15282444;19;20903;-76
2022/05/15 08:34:12;;;;;;;5.78;2.13;;;;;;;17.41;100.00;98840.78;15281318;19;20031;-77
2022/05/15 08:39:18;;;;;;;5.85;1.92;;;;;;;17.62;100.00;98840.97;15284678;19;20014;-77
2022/05/15 08:44:29;;;;;;;6.57;1.90;;;;;;;17.77;100.00;98846.31;15282810;19;20011;-77
2022/05/15 08:49:41;;;;;;;7.45;2.05;;;;;;;17.89;99.48;98852.09;15280962;19;20042;-77
2022/05/15 08:54:57;;;;;;;6.25;2.40;;;;;;;18.03;99.02;98845.72;15281788;19;20826;-76
2022/05/15 09:00:04;;;;;;;6.03;1.98;;;;;;;18.24;94.25;98846.69;15287292;19;20618;-76
2022/05/15 09:05:14;;;;;;;5.20;2.17;;;;;;;18.35;92.73;98842.53;15281997;19;20017;-76
2022/05/15 09:10:28;;;;;;;6.68;2.00;;;;;;;18.48;96.00;98838.00;15285204;19;20043;-77
2022/05/15 09:15:44;;;;;;;6.55;2.22;;;;;;;18.62;91.08;98838.06;15291495;19;20031;-77
2022/05/15 09:21:03;;;;;;;6.27;2.33;;;;;;;18.63;77.33;98835.13;15297731;19;20032;-78
2022/05/15 09:26:17;;;;;;;6.15;2.40;;;;;;;18.72;78.66;98841.25;15300924;19;20014;-79
2022/05/15 09:31:38;;;;;;;8.70;2.47;;;;;;;18.69;74.99;98838.94;15306012;19;20006;-78
2022/05/15 09:36:47;;;;;;;7.38;2.20;;;;;;;18.85;81.82;98842.34;15296969;19;20032;-77
2022/05/15 09:47:32;;;;;;;6.78;2.22;;;;;;;19.05;76.82;98835.09;15299195;19;20373;-77
2022/05/15 09:52:44;;;;;;;5.82;2.15;;;;;;;19.22;77.39;98829.25;15290683;19;20018;-78
2022/05/15 09:57:55;;;;;;;;;;;;;;;19.29;75.82;98819.16;15301472;19;20379;-78
2022/05/15 10:03:04;;;;;;;8.30;2.53;;;;;;;18.97;74.92;98823.50;15293746;19;20357;-77
2022/05/15 10:08:24;;;;;;;5.40;2.20;;;;;;;19.20;79.58;98818.53;15295591;19;20014;-77
2022/05/15 10:13:36;;;;;;;9.13;4.88;;;;;;;19.57;78.69;98818.16;15297577;19;20017;-78
2022/05/15 10:18:46;;;;;;;;;;;;;;;19.80;80.86;98817.69;15299348;19;20015;-77
2022/05/15 10:24:03;;;;;;;5.78;2.30;;;;;;;19.70;76.50;98820.84;15290459;19;19922;-77
2022/05/15 10:29:15;;;;;;;8.07;3.08;;;;;;;19.73;72.76;98818.75;15292956;19;20014;-76
2022/05/15 10:34:26;;;;;;;6.55;2.10;;;;;;;19.67;71.91;98820.44;15288121;19;20015;-77
2022/05/15 10:39:44;;;;;;;6.73;2.20;;;;;;;19.60;74.34;98814.13;15294712;19;20019;-77
2022/05/15 10:45:04;;;;;;;10.52;4.75;;;;;;;19.91;76.21;98810.78;15292768;19;20040;-77
2022/05/15 10:50:24;;;;;;;6.13;2.13;;;;;;;20.02;74.30;98801.94;15291553;19;20017;-77
2022/05/15 11:01:10;;;;;;;8.25;3.50;;;;;;;20.48;71.96;98793.78;15298739;19;20014;-79
2022/05/15 11:06:34;;;;;;;6.88;2.45;;;;;;;20.55;65.25;98789.13;15349731;19;20055;-76
2022/05/15 11:11:57;;;;;;;8.88;2.10;;;;;;;20.51;65.56;98776.94;15289584;19;20011;-77
2022/05/15 11:17:13;;;;;;;6.55;2.35;;;;;;;20.51;63.52;98771.47;15283109;19;20011;-76
2022/05/15 11:22:31;;;;;;;8.85;2.63;;;;;;;20.61;66.46;98763.63;15284793;19;20024;-74
2022/05/15 11:27:47;;;;;;;5.47;2.10;;;;;;;20.82;62.78;98753.44;15278405;19;20401;-77
2022/05/15 11:33:05;;;;;;;4.72;1.95;;;;;;;20.81;61.07;98759.97;15251689;19;20070;-76
2022/05/15 11:38:27;;;;;;;6.95;2.20;;;;;;;20.86;61.65;98756.56;15276303;19;20042;-76
2022/05/15 11:43:54;;;;;;;4.60;2.25;;;;;;;20.99;63.01;98748.25;15284479;19;20364;-77
2022/05/15 11:49:00;;;;;;;6.25;2.13;;;;;;;21.04;59.85;98758.56;15288573;19;20010;-77
2022/05/15 11:54:08;;;;;;;5.70;2.05;;;;;;;20.99;61.40;98748.25;15284679;19;20377;-76
2022/05/15 11:59:38;;;;;;;6.70;2.30;;;;;;;21.39;61.24;98739.75;15285569;19;20015;-78
2022/05/15 12:05:09;;;;;;;7.03;2.00;;;;;;;21.57;56.82;98735.34;15277983;19;20013;-75
2022/05/15 12:10:23;;;;;;;7.33;1.93;;;;;;;21.68;55.42;98736.56;15284881;19;20018;-76
2022/05/15 12:15:39;;;;;;;5.28;1.85;;;;;;;21.64;53.75;98721.63;15282134;19;20010;-75
2022/05/15 12:20:49;;;;;;;4.82;2.10;;;;;;;22.11;57.11;98735.66;15286577;19;20018;-75
2022/05/15 12:26:00;;;;;;;5.77;1.97;;;;;;;22.22;54.53;98728.59;15280728;19;20482;-74
2022/05/15 12:31:11;;;;;;;5.28;2.08;;;;;;;22.46;54.75;98723.25;15286785;19;20010;-77
2022/05/15 12:36:39;;;;;;;4.50;1.90;;;;;;;22.40;55.15;98715.88;15282044;19;20011;-74
2022/05/15 12:41:47;;;;;;;6.07;2.03;;;;;;;22.70;52.28;98713.19;15286091;19;20103;-75
2022/05/15 12:47:00;;;;;;;5.07;1.98;;;;;;;22.94;50.67;98705.00;15285186;19;20015;-73
2022/05/15 12:52:15;;;;;;;6.32;2.20;;;;;;;23.04;49.79;98719.00;15331757;19;20014;-74
2022/05/15 12:57:20;;;;;;;7.50;2.22;;;;;;;23.01;49.56;98713.16;15315570;19;20010;-74
2022/05/15 13:02:34;;;;;;;5.70;2.00;;;;;;;22.84;47.55;98715.75;15297886;19;20021;-78
2022/05/15 13:07:41;;;;;;;3.63;1.70;;;;;;;22.80;47.88;98706.28;15308043;19;20014;-77
2022/05/15 13:12:52;;;;;;;5.85;1.98;;;;;;;23.08;48.53;98706.47;15305502;19;20472;-77
2022/05/15 13:18:08;;;;;;;5.20;2.05;;;;;;;23.36;48.40;98704.16;15304208;19;20014;-78
2022/05/15 13:23:15;;;;;;;4.65;1.75;;;;;;;23.70;47.32;98699.72;15305348;19;20022;-75
2022/05/15 13:28:21;;;;;;;6.65;1.90;;;;;;;23.94;46.87;98699.69;15308945;19;20002;-77
2022/05/15 13:33:35;;;;;;;4.07;1.85;;;;;;;23.97;45.58;98688.22;15296852;19;20029;-78
2022/05/15 13:43:17;;;;;;;5.05;1.92;;;;;;;24.20;45.63;98678.22;15289771;19;20810;-77
2022/05/15 13:44:09;;;;;;;4.10;1.83;;;;;;;24.42;45.80;98674.78;15287810;19;20022;-77
2022/05/15 13:49:19;;;;;;;4.60;1.98;;;;;;;24.67;44.61;98670.84;15295291;19;20018;-78
2022/05/15 13:54:29;;;;;;;5.13;2.10;;;;;;;24.62;43.77;98677.97;15294423;19;20035;-77
2022/05/15 13:59:41;;;;;;;6.18;2.10;;;;;;;24.76;41.72;98666.63;15295704;19;20126;-78
2022/05/15 14:05:19;;;;;;;6.72;2.00;;;;;;;24.57;43.31;98658.56;15291361;19;20010;-77
2022/05/15 14:10:28;;;;;;;2.90;1.33;;;;;;;25.25;42.52;98655.06;15297960;19;20014;-78
2022/05/15 14:15:40;;;;;;;5.22;1.90;;;;;;;25.59;40.47;98655.03;15290033;19;20483;-78
2022/05/15 14:20:51;;;;;;;4.53;1.95;;;;;;;25.90;39.43;98649.91;15295997;19;20018;-78
2022/05/15 14:25:58;;;;;;;5.35;1.73;;;;;;;26.23;40.64;98642.59;15291782;19;20498;-77
2022/05/15 14:31:04;;;;;;;6.53;1.88;;;;;;;26.65;39.71;98638.34;15297053;19;20018;-78
2022/05/15 14:36:17;;;;;;;6.13;1.88;;;;;;;26.65;38.82;98630.03;15287515;19;20023;-77
2022/05/15 14:41:23;;;;;;;3.38;1.58;;;;;;;26.72;38.81;98627.91;15287166;19;20449;-76
2022/05/15 14:46:33;;;;;;;3.72;1.65;;;;;;;26.65;38.91;98626.47;15286150;19;20006;-76
2022/05/15 14:51:47;;;;;;;5.70;1.70;;;;;;;26.73;39.47;98628.75;15297892;19;20019;-79
2022/05/15 14:56:56;;;;;;;8.43;1.88;;;;;;;26.82;38.54;98615.31;15302362;19;20364;-76
2022/05/15 15:02:11;;;;;;;5.93;1.80;;;;;;;27.14;39.62;98611.69;15323730;19;20007;-75
2022/05/15 15:07:21;;;;;;;4.03;1.90;;;;;;;26.91;38.52;98613.72;15353700;19;20002;-78
2022/05/15 15:12:28;;;;;;;4.30;1.80;;;;;;;26.64;39.19;98610.97;15285389;19;20489;-76
2022/05/15 15:17:34;;;;;;;3.63;1.73;;;;;;;26.79;39.21;98605.63;15281509;19;20090;-76
2022/05/15 15:22:44;;;;;;;4.55;1.70;;;;;;;26.88;39.15;98597.66;15287623;19;20015;-77
2022/05/15 15:27:49;;;;;;;5.32;1.60;;;;;;;26.68;38.55;98599.13;15283739;19;20035;-76
2022/05/15 15:32:54;;;;;;;5.00;1.90;;;;;;;26.56;38.97;98599.31;15282385;19;20014;-77
2022/05/15 15:38:19;;;;;;;4.33;1.70;;;;;;;26.95;39.02;98598.28;15293574;19;20030;-78
2022/05/15 15:43:26;;;;;;;6.20;1.90;;;;;;;27.12;38.44;98588.97;15290553;19;20010;-78
2022/05/15 15:48:32;;;;;;;4.80;1.77;;;;;;;27.10;38.08;98583.72;15284433;19;20544;-74
2022/05/15 15:53:39;;;;;;;3.22;1.58;;;;;;;26.99;37.66;98582.81;15284466;19;20026;-76
2022/05/15 15:58:46;;;;;;;5.00;1.80;;;;;;;27.02;38.05;98581.47;15290396;19;20018;-76
2022/05/15 16:03:54;;;;;;;4.45;1.77;;;;;;;27.18;37.75;98577.69;15289335;19;20021;-75
2022/05/15 16:09:03;;;;;;;4.82;2.10;;;;;;;27.28;37.61;98578.88;15290091;19;20011;-77
2022/05/15 16:14:08;;;;;;;5.35;1.85;;;;;;;26.91;37.63;98566.72;15289990;19;20019;-75
2022/05/15 16:19:20;;;;;;;3.75;1.70;;;;;;;26.90;37.24;98559.53;15292446;19;20451;-78
2022/05/15 16:24:34;;;;;;;5.15;1.80;;;;;;;26.66;38.19;98561.81;15291582;19;20026;-75
2022/05/15 16:29:42;;;;;;;4.35;1.90;;;;;;;26.39;38.56;98557.16;15308995;19;20017;-77
2022/05/15 16:34:47;;;;;;;5.53;1.80;;;;;;;26.38;38.55;98553.56;15302895;19;20015;-77
2022/05/15 16:39:57;;;;;;;4.85;1.77;;;;;;;26.52;39.14;98553.97;15302874;19;20014;-75
2022/05/15 16:45:02;;;;;;;5.13;2.03;;;;;;;26.15;39.43;98549.19;15296359;19;20031;-76
2022/05/15 16:50:09;;;;;;;6.20;1.88;;;;;;;26.04;38.99;98545.47;15298510;19;20014;-75
2022/05/15 16:55:25;;;;;;;6.10;1.85;;;;;;;25.95;39.17;98541.47;15296742;19;20030;-79
2022/05/15 17:00:30;;;;;;;4.95;1.88;;;;;;;25.74;40.25;98541.25;15306402;19;20471;-78
2022/05/15 17:05:35;;;;;;;4.97;1.90;;;;;;;25.80;40.95;98548.53;15302608;19;20035;-79
2022/05/15 17:10:45;;;;;;;5.47;1.90;;;;;;;25.75;40.56;98540.19;15300593;19;20015;-78
2022/05/15 17:15:51;;;;;;;6.22;1.90;;;;;;;25.61;40.78;98545.25;15292510;19;20014;-79
2022/05/15 17:20:56;;;;;;;4.20;1.60;;;;;;;25.48;40.20;98538.19;15299587;19;20456;-78
2022/05/15 17:26:04;;;;;;;6.07;2.08;;;;;;;25.12;40.97;98536.84;15291674;19;20027;-75
2022/05/15 17:36:27;;;;;;;4.60;1.95;;;;;;;24.79;41.98;98531.13;15291419;19;20011;-77
2022/05/15 17:41:36;;;;;;;3.80;1.65;;;;;;;24.44;42.71;98529.44;15296394;19;20027;-77
2022/05/15 17:46:42;;;;;;;5.55;1.83;;;;;;;24.09;43.52;98527.72;15290444;19;20011;-76
2022/05/15 17:51:47;;;;;;;4.28;1.90;;;;;;;23.78;44.21;98536.19;15290499;19;20372;-76
2022/05/15 17:56:55;;;;;;;5.97;1.85;;;;;;;23.54;44.08;98532.69;15287651;19;20028;-76
2022/05/15 18:02:00;;;;;;;4.03;1.67;;;;;;;23.17;45.25;98535.72;15296922;19;20014;-77
2022/05/15 18:07:07;;;;;;;5.35;1.85;;;;;;;22.94;45.82;98534.69;15295719;19;20014;-77
2022/05/15 18:12:16;;;;;;;5.55;1.63;;;;;;;22.52;46.58;98529.28;15297727;19;20014;-76
2022/05/15 18:17:22;;;;;;;4.65;1.70;;;;;;;22.23;47.74;98532.66;15293787;19;20007;-74
2022/05/15 18:22:27;;;;;;;5.25;2.05;;;;;;;21.76;48.73;98536.06;15296994;19;20027;-77
2022/05/15 18:27:35;;;;;;;5.03;1.98;;;;;;;21.30;49.57;98538.28;15294105;19;20515;-75
2022/05/15 18:32:41;;;;;;;5.70;1.90;;;;;;;20.97;50.25;98544.97;15294507;19;20035;-73
2022/05/15 18:37:55;;;;;;;3.38;1.67;;;;;;;20.55;51.70;98548.25;15303023;19;20376;-78
2022/05/15 18:43:06;;;;;;;3.95;1.83;;;;;;;20.20;52.92;98546.00;15356675;19;20010;-77
2022/05/15 18:48:12;;;;;;;5.25;1.80;;;;;;;19.83;53.82;98540.28;15317743;19;20081;-78
2022/05/15 18:58:37;;;;;;;4.82;1.73;;;;;;;19.17;57.64;98542.25;15297167;19;20018;-77
2022/05/15 19:03:43;;;;;;;6.70;1.83;;;;;;;18.96;58.33;98541.47;15293845;19;20031;-76
2022/05/15 19:08:48;;;;;;;4.45;1.58;;;;;;;18.71;60.19;98543.97;15300132;19;20014;-78
2022/05/15 19:14:10;;;;;;;6.45;1.75;;;;;;;18.43;63.22;98547.78;15319491;19;20009;-80
2022/05/15 19:19:16;;;;;;;4.75;1.92;;;;;;;18.22;64.56;98548.78;15346196;19;20526;-77
2022/05/15 19:24:22;;;;;;;4.05;1.67;;;;;;;17.97;67.45;98558.41;15284755;19;20018;-78
2022/05/15 19:29:29;;;;;;;4.85;1.98;;;;;;;17.79;70.41;98550.78;15284200;19;20006;-78
2022/05/15 19:34:35;;;;;;;6.15;1.67;;;;;;;17.62;72.60;98557.63;15282277;19;20010;-77
2022/05/15 19:39:40;;;;;;;6.38;1.80;;;;;;;17.47;75.16;98552.31;15285445;19;20007;-77
2022/05/15 19:44:47;;;;;;;6.80;1.95;;;;;;;17.32;77.88;98557.94;15278429;19;20466;-78
2022/05/15 19:49:52;;;;;;;4.50;1.73;;;;;;;17.18;81.93;98559.72;15279591;19;20014;-75
2022/05/15 19:54:57;;;;;;;4.80;1.85;;;;;;;17.06;82.76;98567.63;15280651;19;20022;-76
2022/05/15 20:00:07;;;;;;;4.40;1.70;;;;;;;16.99;85.87;98570.28;15279690;19;20039;-76
2022/05/15 20:16:04;;;;;;;4.95;1.60;;;;;;;16.66;93.15;98567.28;15275458;19;20017;-77
2022/05/15 20:21:11;;;;;;;4.65;1.67;;;;;;;16.57;92.92;98556.56;15280754;19;20081;-78
2022/05/15 20:26:18;;;;;;;3.60;1.58;;;;;;;16.46;94.69;98563.34;15276159;19;20364;-75
2022/05/15 20:31:29;;;;;;;4.10;1.45;;;;;;;16.36;96.98;98560.13;15278562;19;20020;-77
2022/05/15 20:36:35;;;;;;;3.65;1.70;;;;;;;16.24;98.67;98559.84;15275605;19;20014;-77
2022/05/15 20:41:41;;;;;;;3.70;1.45;;;;;;;16.18;97.37;98553.31;15272366;19;20035;-75
2022/05/15 20:46:49;;;;;;;4.18;1.60;;;;;;;16.08;99.53;98557.34;15274968;19;20474;-77
2022/05/15 20:51:54;;;;;;;4.88;1.60;;;;;;;15.99;97.38;98549.34;15274796;19;20459;-77
2022/05/15 20:56:59;;;;;;;5.15;1.40;;;;;;;15.93;95.97;98547.41;15276145;19;20023;-77
2022/05/15 21:02:07;;;;;;;3.85;1.45;;;;;;;15.91;95.38;98551.34;15276287;19;20476;-78
2022/05/15 21:07:12;;;;;;;2.92;1.33;;;;;;;15.85;93.84;98561.09;15272177;19;20340;-76
2022/05/15 21:12:17;;;;;;;3.05;1.40;;;;;;;15.78;94.25;98557.44;15280448;19;20778;-77
2022/05/15 21:17:26;;;;;;;4.40;1.58;;;;;;;15.70;95.53;98567.38;15290333;19;20010;-77
2022/05/15 21:22:31;;;;;;;3.28;1.48;;;;;;;15.61;97.25;98567.69;15292953;19;20015;-76
2022/05/15 21:27:36;;;;;;;3.85;1.42;;;;;;;15.49;98.96;98581.75;15288178;19;20463;-77
2022/05/15 21:32:46;;;;;;;3.80;1.58;;;;;;;15.32;100.00;98580.25;15289095;19;20018;-77
2022/05/15 21:37:51;;;;;;;6.65;1.42;;;;;;;15.21;100.00;98578.88;15292221;19;20010;-76
2022/05/15 21:48:18;;;;;;;4.45;1.33;;;;;;;14.98;100.00;98568.97;15284508;19;20027;-77
2022/05/15 21:53:23;;;;;;;4.47;1.38;;;;;;;14.90;100.00;98563.59;15292955;19;20018;-77
2022/05/15 21:58:28;;;;;;;3.38;1.30;;;;;;;14.86;100.00;98567.72;15294636;19;20007;-77
2022/05/15 22:03:38;;;;;;;4.10;1.58;;;;;;;14.78;100.00;98564.06;15290122;19;20014;-75
2022/05/15 22:08:43;;;;;;;2.40;1.23;;;;;;;14.67;100.00;98569.94;15284479;19;20030;-76
2022/05/15 22:13:48;;;;;;;2.67;1.23;;;;;;;14.62;100.00;98567.75;15288654;19;20352;-77
2022/05/15 22:18:56;;;;;;;2.50;1.20;;;;;;;14.53;100.00;98570.69;15285615;19;20486;-76
2022/05/15 22:24:05;;;;;;;4.65;1.52;;;;;;;14.45;100.00;98564.34;15284723;19;20010;-77
2022/05/15 22:29:10;;;;;;;3.65;1.40;;;;;;;14.40;100.00;98568.63;15287308;19;20033;-76
2022/05/15 22:34:17;;;;;;;3.38;1.27;;;;;;;14.35;100.00;98565.63;15287815;19;20396;-77
2022/05/15 22:39:22;;;;;;;4.40;1.50;;;;;;;14.30;100.00;98571.56;15290089;19;20389;-76
2022/05/15 22:44:27;;;;;;;3.42;1.30;;;;;;;14.26;100.00;98575.69;15282692;19;20021;-77
2022/05/15 22:49:35;;;;;;;3.08;1.27;;;;;;;14.23;100.00;98570.63;15283064;19;20957;-77
2022/05/15 22:54:40;;;;;;;4.95;1.23;;;;;;;14.17;100.00;98578.44;15281444;19;20248;-76
2022/05/15 22:59:45;;;;;;;2.60;1.17;;;;;;;14.08;100.00;98579.53;15291955;19;20007;-74
2022/05/15 23:10:12;;;;;;;2.38;1.10;;;;;;;13.98;100.00;98570.78;15361729;19;20014;-76
2022/05/15 23:15:19;;;;;;;3.47;1.10;;;;;;;13.84;100.00;98570.53;15304620;19;20011;-76
2022/05/15 23:20:31;;;;;;;2.92;1.13;;;;;;;13.78;100.00;98567.69;15295876;19;20531;-75
2022/05/15 23:25:36;;;;;;;3.05;1.27;;;;;;;13.68;100.00;98573.38;15301479;19;20018;-77
2022/05/15 23:30:41;;;;;;;3.13;1.33;;;;;;;13.55;100.00;98569.38;15298870;19;20018;-77
2022/05/15 23:35:49;;;;;;;5.25;1.80;;;;;;;13.45;100.00;98579.56;15296493;19;20022;-75
2022/05/15 23:40:54;;;;;;;6.50;2.03;;;;;;;13.23;100.00;98565.72;15303431;19;20006;-76
2022/05/15 23:46:00;;;;;;;3.22;1.40;;;;;;;13.07;100.00;98566.63;15300273;19;20003;-77
2022/05/15 23:51:08;;;;;;;6.72;1.58;;;;;;;12.95;100.00;98574.28;15296426;19;20050;-75
2022/05/15 23:56:13;;;;;;;3.28;1.55;;;;;;;12.81;100.00;98566.03;15286932;19;20042;-76
